Latest Weather Observations for Davis (Whoop Whoop)*

IDT60801

Issued at 12:31 pm EDT Saturday 20 December 2014 (issued every 30 minutes, with the page automatically refreshed every 10 minutes)

About weather observations | Map of weather stations | Latest weather observations for ANT | Other Formats
Station Details ID: 300055 Name: DAVIS (WHOOP WHOOP) Lat: -68.48 Lon: 78.82 Height: 545.0 m
Data from the previous 72 hours. | See also: Recent months for locations in Antarctica
Date/Time
EDT
Temp
°C
App
Temp
°C
Dew
Point
Rel
Hum
%
Delta-T
°C
Wind Press
QNH
hPa
Press
MSL
hPa
Rain
since 9 am
mm
Dir
 
Spd
km/h
Gust
km/h
Spd
kts
Gust
kts
20/12:00pm -3.3 -15.0 -9.1 64 - E 46 54 25 29 976.7 - -
20/11:30am -2.8 -14.9 -9.5 60 - E 48 56 26 30 976.8 - -
20/10:30am -3.8 -15.9 -9.0 67 - E 48 54 26 29 977.0 - -
20/10:00am -3.8 -16.7 -9.2 66 - E 52 61 28 33 976.9 - -
20/09:30am -3.6 -15.7 -9.0 66 - E 48 57 26 31 976.7 - -
20/09:00am -3.4 -15.5 -9.4 63 - E 48 56 26 30 976.5 - -
20/08:30am -3.5 -16.0 -8.7 67 - E 50 59 27 32 976.5 - -
20/08:00am -3.7 -15.8 -8.7 68 - E 48 54 26 29 976.7 - -
20/07:30am -3.9 -16.0 -9.3 66 - E 48 57 26 31 976.8 - -
20/07:00am -4.1 -16.6 -9.5 66 - E 50 56 27 30 976.7 - -
20/06:30am -4.6 -16.7 -9.4 69 - E 48 52 26 28 976.8 - -
20/06:00am -4.5 -15.9 -9.7 67 - E 44 52 24 28 977.1 - -
20/05:30am -4.0 -15.4 -9.2 67 - E 44 52 24 28 977.0 - -
20/04:30am -3.4 -14.1 -8.1 70 - E 41 46 22 25 977.4 - -
20/04:00am -3.5 -13.8 -8.3 69 - E 39 44 21 24 977.4 - -
20/03:30am -3.6 -13.6 -8.4 69 - E 37 44 20 24 977.5 - -
20/03:00am -3.7 -12.7 -8.4 70 - E 32 35 17 19 977.7 - -
20/02:30am -3.0 -10.8 -7.1 73 - E 26 30 14 16 977.9 - -
20/02:00am -1.5 -7.7 -5.3 75 - E 19 22 10 12 977.8 - -
20/01:30am -1.2 -8.4 -5.6 72 - E 24 30 13 16 977.8 - -
20/01:00am -0.9 -7.1 -5.3 72 - E 19 20 10 11 977.9 - -
20/12:30am -1.4 -8.7 -6.1 70 - ENE 24 28 13 15 978.2 - -
20/12:00am -1.0 -9.0 -6.1 68 - ENE 28 32 15 17 978.4 - -
 
Date/Time
EDT
Temp
°C
App
Temp
°C
Dew
Point
Rel
Hum
%
Delta-T
°C
Wind Press
QNH
hPa
Press
MSL
hPa
Rain
since 9 am
mm
Dir
 
Spd
km/h
Gust
km/h
Spd
kts
Gust
kts
19/11:30pm -0.6 -8.2 -5.8 68 - ENE 26 32 14 17 978.4 - -
19/11:00pm -0.1 -7.7 -5.7 66 - ENE 26 33 14 18 978.4 - -
19/10:30pm -0.1 -8.0 -5.1 69 - ENE 28 32 15 17 978.4 - -
19/10:00pm -0.1 -9.1 -5.7 66 - ENE 33 39 18 21 978.6 - -
19/09:30pm -0.2 -10.3 -5.4 68 - ENE 39 46 21 25 978.4 - -
19/09:00pm 0.1 -10.0 -5.5 66 - ENE 39 48 21 26 978.2 - -
19/08:30pm 0.2 -10.3 -5.6 65 - ENE 41 50 22 27 978.1 - -
19/08:00pm 0.3 -9.4 -5.9 63 - ENE 37 44 20 24 978.2 - -
19/07:30pm 0.6 -8.4 -6.0 61 - NE 33 43 18 23 978.4 - -
19/07:00pm 0.7 -9.1 -6.2 60 - ENE 37 43 20 23 978.4 - -
19/06:30pm 0.8 -8.6 -6.3 59 - NE 35 46 19 25 978.1 - -
19/06:00pm 0.8 -8.3 -7.0 56 - NE 33 43 18 23 978.1 - -
19/05:30pm 0.7 -9.9 -6.6 58 - NE 41 50 22 27 978.0 - -
19/05:00pm 0.0 -10.5 -6.2 63 - NE 41 50 22 27 977.8 - -
19/04:30pm 0.7 -7.3 -5.5 63 - NE 28 37 15 20 977.9 - -
19/04:29pm 0.7 -7.3 -5.9 61 - NE 28 37 15 20 977.9 - -
19/04:00pm 2.1 -2.4 -6.7 52 - N 9 19 5 10 977.9 - -
19/03:30pm 0.8 -6.9 -7.0 56 - NE 26 33 14 18 977.8 - -
19/03:00pm -0.4 -10.2 -6.8 62 - ENE 37 44 20 24 977.5 - -
19/02:30pm -1.1 -12.7 -7.4 62 - ENE 46 56 25 30 977.0 - -
19/02:00pm -2.1 -14.1 -7.6 66 - ENE 48 57 26 31 976.8 - -
19/01:30pm -2.7 -15.9 -8.0 67 - ENE 54 61 29 33 976.6 - -
19/01:00pm -2.9 -15.0 -8.9 63 - ENE 48 57 26 31 976.6 - -
19/12:30pm -3.3 -15.4 -9.1 64 - ENE 48 57 26 31 976.8 - -
19/12:00pm -3.5 -15.6 -9.1 65 - ENE 48 57 26 31 976.8 - -
19/11:30am -4.0 -15.2 -9.6 65 - ENE 43 48 23 26 976.7 - -
19/11:00am -4.2 -14.6 -9.8 65 - ENE 39 46 21 25 976.9 - -
19/10:30am -5.3 -14.1 -10.4 67 - ENE 30 35 16 19 976.9 - -
19/10:00am -5.4 -13.8 -10.5 67 - ENE 28 33 15 18 976.9 - -
19/09:30am -5.6 -14.8 -10.7 67 - ENE 32 39 17 21 976.9 - -
19/09:00am -6.2 -15.4 -11.1 68 - E 32 35 17 19 976.7 - -
19/08:30am -6.7 -16.1 -11.6 68 - E 33 37 18 20 976.6 - -
19/08:00am -7.0 -16.5 -11.9 68 - E 33 39 18 21 976.3 - -
19/07:30am -7.3 -16.8 -12.2 68 - E 33 41 18 22 976.1 - -
19/07:00am -7.2 -17.4 -12.1 68 - E 37 43 20 23 975.8 - -
19/06:30am -7.0 -16.9 -12.3 66 - E 35 43 19 23 975.5 - -
19/06:00am -6.8 -17.0 -12.1 66 - E 37 41 20 22 975.4 - -
19/05:30am -6.7 -16.9 -11.6 68 - E 37 41 20 22 975.1 - -
19/05:00am -6.9 -15.7 -11.3 71 - E 30 33 16 18 974.9 - -
19/04:30am -6.5 -14.9 -10.5 73 - E 28 32 15 17 974.9 - -
19/04:00am -6.1 -14.1 -9.6 76 - E 26 28 14 15 974.7 - -
19/03:30am -5.3 -11.9 -8.7 77 - ESE 19 24 10 13 974.6 - -
19/03:00am -3.6 -9.7 -7.2 76 - E 17 19 9 10 974.2 - -
19/02:30am -3.1 -9.2 -7.2 73 - E 17 19 9 10 974.1 - -
19/02:00am -3.0 -8.6 -6.8 75 - E 15 17 8 9 973.9 - -
19/01:30am -2.6 -7.9 -6.9 72 - E 13 19 7 10 974.0 - -
19/01:00am -2.0 -6.1 -6.2 73 - ESE 7 7 4 4 973.8 - -
19/12:30am -2.3 -6.8 -7.0 70 - ENE 9 13 5 7 973.7 - -
19/12:00am -0.9 -4.4 -6.6 65 - ENE 4 7 2 4 973.5 - -
 
Date/Time
EDT
Temp
°C
App
Temp
°C
Dew
Point
Rel
Hum
%
Delta-T
°C
Wind Press
QNH
hPa
Press
MSL
hPa
Rain
since 9 am
mm
Dir
 
Spd
km/h
Gust
km/h
Spd
kts
Gust
kts
18/11:30pm -2.2 -6.7 -6.9 70 - ENE 9 11 5 6 973.2 - -
18/11:00pm -1.1 -6.8 -7.4 62 - NE 15 19 8 10 973.1 - -
18/10:30pm -1.1 -7.8 -7.6 61 - NE 20 24 11 13 973.0 - -
18/10:00pm 0.8 -5.2 -6.5 58 - NNE 17 20 9 11 972.7 - -
18/09:30pm -0.5 -7.5 -7.7 58 - NE 22 28 12 15 972.6 - -
18/09:00pm 1.7 -2.7 -5.7 58 - NNE 9 15 5 8 972.4 - -
18/08:30pm 1.8 -3.4 -6.0 56 - NNE 13 17 7 9 972.2 - -
18/08:00pm 1.8 -4.1 -5.8 57 - NNE 17 20 9 11 972.0 - -
18/07:30pm 0.8 -6.2 -6.7 57 - NE 22 30 12 16 971.8 - -
18/07:00pm 0.5 -6.8 -6.6 59 - NE 24 30 13 16 972.0 - -
18/06:00pm -0.3 -8.2 -8.5 54 - NE 26 39 14 21 972.1 - -
18/05:30pm -0.4 -8.2 -7.9 57 - NE 26 30 14 16 972.2 - -
18/05:00pm 0.0 -6.1 -7.5 57 - NE 17 26 9 14 972.3 - -
18/04:30pm 0.4 -4.9 -7.1 57 - NE 13 17 7 9 972.4 - -
18/04:00pm -0.6 -7.3 -7.6 59 - NE 20 26 11 14 972.7 - -
18/03:30pm -1.2 -7.9 -7.7 61 - ENE 20 26 11 14 972.8 - -
18/03:00pm -1.1 -8.1 -7.4 62 - ENE 22 28 12 15 972.9 - -
18/02:30pm -2.1 -10.0 -8.2 63 - ENE 26 33 14 18 972.9 - -
18/02:00pm -2.6 -10.9 -8.7 63 - ENE 28 33 15 18 972.9 - -
18/01:30pm -3.5 -12.2 -8.9 66 - ENE 30 37 16 20 973.1 - -
18/01:00pm -3.6 -11.9 -9.0 66 - ENE 28 32 15 17 973.3 - -
18/12:30pm -4.7 -13.8 -9.7 68 - ENE 32 37 17 20 973.4 - -
18/12:00pm -4.6 -13.4 -10.0 66 - E 30 35 16 19 973.4 - -
18/11:30am -4.8 -14.0 -10.3 65 - E 32 37 17 20 973.6 - -
18/11:00am -5.6 -15.4 -10.9 66 - E 35 41 19 22 973.7 - -
18/10:30am -5.8 -15.6 -11.1 66 - E 35 39 19 21 973.7 - -
18/10:00am -6.3 -16.1 -11.6 66 - E 35 41 19 22 973.8 - -
18/09:30am -6.7 -17.3 -12.0 66 - E 39 43 21 23 973.7 - -
18/09:00am -6.9 -17.5 -12.0 67 - E 39 46 21 25 973.7 - -
18/08:30am -6.9 -17.9 -12.0 67 - E 41 46 22 25 973.8 - -
18/08:00am -6.6 -17.2 -11.7 67 - E 39 46 21 25 973.8 - -
18/07:30am -6.6 -16.8 -11.5 68 - E 37 43 20 23 974.1 - -
18/07:00am -6.5 -16.7 -11.4 68 - E 37 43 20 23 974.1 - -
18/06:30am -6.4 -15.6 -10.9 70 - E 32 37 17 20 974.3 - -
18/06:00am -6.4 -12.4 -10.8 71 - ESE 15 22 8 12 974.7 - -
18/05:30am -6.1 -13.3 -9.8 75 - ENE 22 30 12 16 974.8 - -
18/05:00am -6.0 -10.8 -10.4 71 - SE 9 15 5 8 975.0 - -
18/04:30am -5.6 -11.5 -10.0 71 - E 15 20 8 11 975.0 - -
18/04:00am -5.4 -10.5 -10.0 70 - E 11 20 6 11 975.0 - -
18/03:30am -5.7 -11.2 -9.9 72 - E 13 20 7 11 974.9 - -
18/03:00am -5.4 -15.5 -9.8 71 - ENE 37 43 20 23 974.3 - -
18/02:30am -5.5 -15.2 -9.9 71 - ENE 35 43 19 23 974.3 - -
18/02:00am -5.6 -15.7 -9.7 73 - ENE 37 44 20 24 974.2 - -
18/01:30am -5.6 -16.4 -10.0 71 - ENE 41 46 22 25 974.3 - -
18/01:00am -5.7 -15.8 -9.7 73 - ENE 37 43 20 23 974.2 - -
18/12:30am -5.4 -17.2 -9.8 71 - ENE 46 54 25 29 974.0 - -
18/12:00am -5.2 -17.0 -9.6 71 - ENE 46 52 25 28 974.1 - -

Other Formats:

Comma delimited format used in spreadsheet applications
http://www.bom.gov.au/fwo/IDT60803/IDT60803.89570.axf

JavaScript Object Notation format (JSON) in row-major order
http://www.bom.gov.au/fwo/IDT60803/IDT60803.89570.json